createdAt,value
2019-03-19T00:00:53.986Z,1.90
2019-03-19T00:03:24.012Z,1.90
2019-03-19T00:05:54.064Z,1.80
2019-03-19T00:08:24.168Z,1.50
2019-03-19T00:10:54.219Z,1.57
2019-03-19T00:13:24.235Z,1.70
2019-03-19T00:15:54.252Z,1.80
2019-03-19T00:18:24.335Z,1.87
2019-03-19T00:20:54.481Z,1.90
2019-03-19T00:23:24.519Z,1.37
2019-03-19T00:25:54.780Z,1.53
2019-03-19T00:28:24.823Z,44.80
2019-03-19T00:30:54.860Z,27.97
2019-03-19T00:33:24.890Z,9.27
2019-03-19T00:35:55.016Z,4.13
2019-03-19T00:38:25.195Z,2.67
2019-03-19T00:40:55.319Z,2.10
2019-03-19T00:43:25.537Z,1.60
2019-03-19T00:45:55.660Z,2.00
2019-03-19T00:48:25.715Z,1.87
2019-03-19T00:50:56.279Z,1.50
2019-03-19T00:53:26.605Z,1.83
2019-03-19T00:55:56.679Z,1.93
2019-03-19T00:58:26.779Z,1.90
2019-03-19T01:00:56.798Z,1.50
2019-03-19T01:03:26.823Z,2.03
2019-03-19T01:05:56.869Z,1.43
2019-03-19T01:08:27.030Z,1.77
2019-03-19T01:10:57.127Z,1.40
2019-03-19T01:13:29.043Z,1.50
2019-03-19T01:15:59.155Z,1.90
2019-03-19T01:18:29.382Z,1.93
2019-03-19T01:20:59.387Z,1.60
2019-03-19T01:23:29.446Z,2.00
2019-03-19T01:25:59.564Z,1.83
2019-03-19T01:28:29.623Z,1.67
2019-03-19T01:30:59.772Z,3.00
2019-03-19T01:33:29.913Z,2.40
2019-03-19T01:36:00.005Z,2.40
2019-03-19T01:38:30.054Z,2.53
2019-03-19T01:41:00.183Z,2.60
2019-03-19T01:43:30.287Z,2.50
2019-03-19T01:46:00.397Z,2.60
2019-03-19T01:48:30.595Z,2.70
2019-03-19T01:51:00.657Z,2.20
2019-03-19T01:53:30.800Z,2.17
2019-03-19T01:56:05.248Z,1.87
2019-03-19T01:58:32.631Z,2.63
2019-03-19T02:01:02.765Z,2.30
2019-03-19T02:03:32.872Z,2.47
2019-03-19T02:06:03.197Z,2.73
2019-03-19T02:08:33.311Z,2.97
2019-03-19T02:11:04.309Z,2.50
2019-03-19T02:13:34.587Z,2.20
2019-03-19T02:16:04.714Z,2.73
2019-03-19T02:18:34.828Z,2.50
2019-03-19T02:21:04.960Z,2.60
2019-03-19T02:23:35.077Z,3.00
2019-03-19T02:26:15.567Z,2.47
2019-03-19T02:28:36.815Z,2.20
2019-03-19T02:31:06.852Z,2.50
2019-03-19T02:33:36.868Z,2.80
2019-03-19T02:36:06.891Z,2.10
2019-03-19T02:38:37.004Z,2.50
2019-03-19T02:41:07.132Z,2.13
2019-03-19T02:43:37.153Z,1.97
2019-03-19T02:46:07.165Z,1.87
2019-03-19T02:48:37.204Z,1.73
2019-03-19T02:51:07.251Z,2.30
2019-03-19T02:53:38.420Z,1.90
2019-03-19T02:56:08.442Z,2.20
2019-03-19T02:58:38.505Z,2.10
2019-03-19T03:01:08.563Z,3.40
2019-03-19T03:03:38.592Z,3.17
2019-03-19T03:06:08.616Z,2.97
2019-03-19T03:08:38.636Z,2.53
2019-03-19T03:11:08.660Z,2.33
2019-03-19T03:13:38.871Z,2.70
2019-03-19T03:16:08.895Z,2.27
2019-03-19T03:18:38.926Z,3.00
2019-03-19T03:21:09.042Z,2.83
2019-03-19T03:23:39.150Z,2.27
2019-03-19T03:26:09.179Z,2.20
2019-03-19T03:28:39.308Z,2.40
2019-03-19T03:31:10.426Z,3.43
2019-03-19T03:33:40.440Z,2.80
2019-03-19T03:36:10.512Z,2.27
2019-03-19T03:38:40.549Z,2.77
2019-03-19T03:41:10.581Z,2.50
2019-03-19T03:43:40.652Z,2.77
2019-03-19T03:46:10.674Z,3.20
2019-03-19T03:48:40.750Z,3.10
2019-03-19T03:51:10.775Z,2.90
2019-03-19T03:53:40.827Z,3.53
2019-03-19T03:56:10.839Z,3.53
2019-03-19T03:58:40.884Z,3.23
2019-03-19T04:01:11.261Z,3.60
2019-03-19T04:03:41.458Z,3.67
2019-03-19T04:06:11.500Z,3.30
2019-03-19T04:08:41.604Z,3.00
2019-03-19T04:11:11.633Z,2.93
2019-03-19T04:13:41.663Z,3.60
2019-03-19T04:16:11.711Z,3.37
2019-03-19T04:18:41.757Z,3.43
2019-03-19T04:21:12.019Z,2.87
2019-03-19T04:23:42.112Z,3.27
2019-03-19T04:26:12.156Z,4.20
2019-03-19T04:28:42.176Z,3.60
2019-03-19T04:31:12.208Z,3.60
2019-03-19T04:33:42.740Z,3.40
2019-03-19T04:36:12.824Z,4.00
2019-03-19T04:38:42.852Z,4.50
2019-03-19T04:41:12.859Z,4.73
2019-03-19T04:43:42.983Z,3.77
2019-03-19T04:46:13.109Z,3.50
2019-03-19T04:48:43.120Z,5.10
2019-03-19T04:51:13.147Z,4.90
2019-03-19T04:53:43.171Z,4.77
2019-03-19T04:56:13.305Z,4.23
2019-03-19T04:58:43.373Z,4.77
2019-03-19T05:01:13.432Z,5.17
2019-03-19T05:03:43.523Z,5.37
2019-03-19T05:06:13.539Z,5.13
2019-03-19T05:08:43.554Z,5.17
2019-03-19T05:11:13.591Z,5.30
2019-03-19T05:13:43.607Z,4.30
2019-03-19T05:16:13.709Z,5.07
2019-03-19T05:18:43.803Z,5.27
2019-03-19T05:21:13.829Z,4.27
2019-03-19T05:23:43.850Z,4.37
2019-03-19T05:26:13.895Z,4.70
2019-03-19T05:28:43.912Z,4.47
2019-03-19T05:31:14.051Z,4.40
2019-03-19T05:33:44.183Z,4.03
2019-03-19T05:36:15.179Z,4.57
2019-03-19T05:38:45.375Z,5.10
2019-03-19T05:41:16.614Z,4.83
2019-03-19T05:43:47.990Z,4.53
2019-03-19T05:46:18.166Z,4.70
2019-03-19T05:48:48.195Z,5.23
2019-03-19T05:51:18.269Z,5.57
2019-03-19T05:53:48.364Z,5.97
2019-03-19T05:56:18.398Z,6.30
2019-03-19T05:58:48.485Z,6.57
2019-03-19T06:01:18.517Z,4.90
2019-03-19T06:03:48.571Z,5.07
2019-03-19T06:06:18.602Z,4.87
2019-03-19T06:08:48.633Z,5.27
2019-03-19T06:11:18.712Z,4.73
2019-03-19T06:13:48.726Z,3.97
2019-03-19T06:16:18.847Z,4.57
2019-03-19T06:18:49.023Z,4.77
2019-03-19T06:21:19.051Z,5.87
2019-03-19T06:23:49.095Z,4.90
2019-03-19T06:26:19.208Z,5.37
2019-03-19T06:28:49.224Z,5.47
2019-03-19T06:31:19.263Z,6.50
2019-03-19T06:33:49.364Z,7.17
2019-03-19T06:36:19.418Z,6.23
2019-03-19T06:38:49.513Z,4.97
2019-03-19T06:41:19.554Z,4.83
2019-03-19T06:43:49.631Z,5.63
2019-03-19T06:46:19.750Z,6.13
2019-03-19T06:48:49.875Z,5.60
2019-03-19T06:51:19.973Z,5.47
2019-03-19T06:53:50.011Z,6.63
2019-03-19T06:56:20.069Z,7.60
2019-03-19T06:58:50.101Z,9.37
2019-03-19T07:01:20.136Z,8.00
2019-03-19T07:03:50.263Z,10.57
2019-03-19T07:06:20.307Z,11.63
2019-03-19T07:08:50.331Z,9.50
2019-03-19T07:11:20.465Z,10.50
2019-03-19T07:13:50.501Z,9.30
2019-03-19T07:16:20.533Z,7.57
2019-03-19T07:18:50.580Z,6.67
2019-03-19T07:21:20.627Z,6.03
2019-03-19T07:23:50.725Z,5.20
2019-03-19T07:26:20.751Z,5.90
2019-03-19T07:28:50.887Z,5.50
2019-03-19T07:31:30.313Z,4.87
2019-03-19T07:33:52.822Z,5.20
2019-03-19T07:36:22.868Z,5.07
2019-03-19T07:38:52.888Z,5.07
2019-03-19T07:41:22.986Z,5.13
2019-03-19T07:43:53.117Z,4.80
2019-03-19T07:46:23.228Z,5.20
2019-03-19T07:48:53.351Z,4.90
2019-03-19T07:51:23.400Z,5.57
2019-03-19T07:53:53.495Z,5.30
2019-03-19T07:56:23.516Z,6.13
2019-03-19T07:58:53.657Z,5.97
2019-03-19T08:01:24.799Z,6.70
2019-03-19T08:03:56.052Z,6.77
2019-03-19T08:06:26.161Z,7.27
2019-03-19T08:08:56.285Z,7.50
2019-03-19T08:11:26.458Z,6.73
2019-03-19T08:13:56.491Z,7.80
2019-03-19T08:16:27.863Z,7.72
2019-03-19T08:18:58.064Z,8.17
2019-03-19T08:21:28.186Z,8.77
2019-03-19T08:23:58.907Z,8.65
2019-03-19T08:26:29.551Z,8.50
2019-03-19T08:29:00.151Z,8.55
2019-03-19T08:31:30.751Z,8.13
2019-03-19T08:34:01.447Z,7.80
2019-03-19T08:36:32.462Z,7.80
2019-03-19T08:39:03.720Z,8.33
2019-03-19T08:41:34.311Z,8.20
2019-03-19T08:44:04.911Z,8.10
2019-03-19T08:46:35.499Z,8.05
2019-03-19T08:49:06.159Z,8.08
2019-03-19T08:51:36.752Z,8.00
2019-03-19T08:54:07.392Z,9.05
2019-03-19T08:56:37.424Z,8.10
2019-03-19T08:59:08.995Z,7.50
2019-03-19T09:01:39.678Z,6.97
2019-03-19T09:04:09.719Z,7.33
2019-03-19T09:06:39.752Z,8.00
2019-03-19T09:09:10.379Z,8.08
2019-03-19T09:11:41.208Z,8.53
2019-03-19T09:14:11.265Z,10.00
2019-03-19T09:16:41.858Z,9.10
2019-03-19T09:19:12.496Z,9.73
2019-03-19T09:21:43.101Z,9.30
2019-03-19T09:24:13.779Z,9.18
2019-03-19T09:26:44.383Z,9.03
2019-03-19T09:29:17.110Z,9.48
2019-03-19T09:31:46.834Z,9.70
2019-03-19T09:34:17.475Z,8.65
2019-03-19T09:36:56.972Z,8.70
2019-03-19T09:39:20.505Z,8.45
2019-03-19T09:41:50.560Z,8.57
2019-03-19T09:44:21.179Z,8.48
2019-03-19T09:46:51.835Z,8.60
2019-03-19T09:49:22.439Z,8.53
2019-03-19T09:51:53.195Z,9.05
2019-03-19T09:54:23.827Z,8.83
2019-03-19T09:56:54.461Z,9.20
2019-03-19T09:59:27.285Z,9.10
2019-03-19T10:01:57.423Z,9.00
2019-03-19T10:04:28.066Z,8.43
2019-03-19T10:07:05.739Z,9.47
2019-03-19T10:09:30.482Z,8.45
2019-03-19T10:12:01.124Z,9.00
2019-03-19T10:14:31.847Z,8.53
2019-03-19T10:17:02.444Z,9.33
2019-03-19T10:19:33.064Z,9.03
2019-03-19T10:22:03.656Z,8.33
2019-03-19T10:24:34.263Z,9.10
2019-03-19T10:27:04.901Z,8.38
2019-03-19T10:29:38.618Z,8.45
2019-03-19T10:32:09.299Z,7.78
2019-03-19T10:34:39.924Z,7.40
2019-03-19T10:37:10.504Z,8.23
2019-03-19T10:39:41.141Z,7.20
2019-03-19T10:42:11.758Z,7.12
2019-03-19T10:44:42.366Z,7.08
2019-03-19T10:47:13.039Z,6.65
2019-03-19T10:49:43.659Z,6.15
2019-03-19T10:52:15.275Z,6.50
2019-03-19T10:54:46.059Z,5.83
2019-03-19T10:57:16.663Z,6.33
2019-03-19T10:59:49.312Z,6.08
2019-03-19T11:02:19.603Z,5.80
2019-03-19T11:04:50.315Z,5.47
2019-03-19T11:07:20.947Z,5.53
2019-03-19T11:09:51.601Z,5.17
2019-03-19T11:12:22.260Z,5.78
2019-03-19T11:14:53.026Z,5.28
2019-03-19T11:17:23.634Z,4.72
2019-03-19T11:19:55.217Z,5.00
2019-03-19T11:22:25.818Z,4.80
2019-03-19T11:24:57.492Z,4.78
2019-03-19T11:27:28.096Z,5.28
2019-03-19T11:29:59.975Z,4.62
2019-03-19T11:32:30.845Z,5.20
2019-03-19T11:35:01.484Z,4.70
2019-03-19T11:37:32.247Z,4.70
2019-03-19T11:40:02.959Z,4.40
2019-03-19T11:42:33.583Z,4.60
2019-03-19T11:45:04.372Z,4.30
2019-03-19T11:47:35.039Z,4.05
2019-03-19T11:50:07.568Z,3.67
2019-03-19T11:52:40.178Z,3.60
2019-03-19T11:55:10.993Z,3.37
2019-03-19T11:57:41.672Z,2.92
2019-03-19T12:00:16.104Z,3.02
2019-03-19T12:02:46.783Z,2.52
2019-03-19T12:05:17.418Z,2.60
2019-03-19T12:07:48.072Z,2.72
2019-03-19T12:10:18.708Z,2.27
2019-03-19T12:12:49.355Z,2.92
2019-03-19T12:15:19.988Z,3.77
2019-03-19T12:17:50.650Z,4.92
2019-03-19T12:20:28.777Z,5.65
2019-03-19T12:23:00.476Z,4.15
2019-03-19T12:25:31.557Z,2.90
2019-03-19T12:28:02.361Z,3.65
2019-03-19T12:30:33.016Z,3.22
2019-03-19T12:33:03.630Z,3.70
2019-03-19T12:35:34.280Z,3.80
2019-03-19T12:38:04.953Z,3.50
2019-03-19T12:40:37.260Z,3.65
2019-03-19T12:43:07.986Z,3.40
2019-03-19T12:45:38.633Z,2.77
2019-03-19T12:48:09.253Z,2.90
2019-03-19T12:50:39.885Z,4.05
2019-03-19T12:53:10.515Z,3.85
2019-03-19T12:55:41.223Z,4.45
2019-03-19T12:58:12.171Z,5.75
2019-03-19T13:00:42.876Z,7.40
2019-03-19T13:03:13.552Z,5.12
2019-03-19T13:05:44.260Z,5.95
2019-03-19T13:08:14.921Z,4.47
2019-03-19T13:10:45.551Z,3.45
2019-03-19T13:13:16.263Z,3.35
2019-03-19T13:15:46.995Z,3.75
2019-03-19T13:18:17.647Z,4.30
2019-03-19T13:20:48.308Z,4.78
2019-03-19T13:23:18.927Z,6.65
2019-03-19T13:25:49.585Z,8.10
2019-03-19T13:28:20.298Z,6.20
2019-03-19T13:30:50.963Z,5.65
2019-03-19T13:33:21.653Z,6.70
2019-03-19T13:35:52.453Z,6.28
2019-03-19T13:38:23.107Z,6.55
2019-03-19T13:40:54.822Z,6.12
2019-03-19T13:43:25.534Z,6.37
2019-03-19T13:45:56.252Z,6.03
2019-03-19T13:48:26.435Z,6.17
2019-03-19T13:50:57.105Z,6.62
2019-03-19T13:53:27.716Z,6.40
2019-03-19T13:55:58.399Z,5.75
2019-03-19T13:58:29.080Z,5.42
2019-03-19T14:00:59.784Z,5.50
2019-03-19T14:03:30.429Z,5.87
2019-03-19T14:06:00.443Z,5.97
2019-03-19T14:08:31.136Z,6.55
2019-03-19T14:11:01.854Z,6.17
2019-03-19T14:13:32.547Z,6.10
2019-03-19T14:16:04.218Z,7.65
2019-03-19T14:18:34.917Z,11.85
2019-03-19T14:21:05.519Z,7.62
2019-03-19T14:23:36.163Z,7.83
2019-03-19T14:26:06.839Z,6.58
2019-03-19T14:28:37.510Z,6.67
2019-03-19T14:31:09.159Z,5.67
2019-03-19T14:33:42.920Z,6.08
2019-03-19T14:36:13.764Z,5.60
2019-03-19T14:38:47.314Z,5.58
2019-03-19T14:41:17.061Z,4.92
2019-03-19T14:43:47.766Z,5.42
2019-03-19T14:46:18.382Z,5.50
2019-03-19T14:48:49.001Z,5.87
2019-03-19T14:51:19.618Z,4.85
2019-03-19T14:53:50.280Z,5.72
2019-03-19T14:56:21.056Z,5.10
2019-03-19T14:58:51.814Z,5.28
2019-03-19T15:01:22.650Z,4.47
2019-03-19T15:03:53.395Z,4.37
2019-03-19T15:06:24.090Z,4.50
2019-03-19T15:08:54.893Z,4.55
2019-03-19T15:11:25.613Z,4.62
2019-03-19T15:13:56.345Z,4.65
2019-03-19T15:16:26.540Z,5.73
2019-03-19T15:18:57.194Z,4.85
2019-03-19T15:21:27.868Z,4.65
2019-03-19T15:23:58.576Z,5.10
2019-03-19T15:26:29.274Z,4.70
2019-03-19T15:29:00.208Z,4.62
2019-03-19T15:31:30.852Z,4.87
2019-03-19T15:34:01.544Z,5.45
2019-03-19T15:36:32.235Z,4.97
2019-03-19T15:39:07.289Z,5.37
2019-03-19T15:41:37.857Z,5.50
2019-03-19T15:44:08.538Z,5.40
2019-03-19T15:46:39.256Z,5.72
2019-03-19T15:49:09.870Z,6.00
2019-03-19T15:51:40.465Z,5.40
2019-03-19T15:54:11.172Z,4.95
2019-03-19T15:56:41.851Z,5.55
2019-03-19T15:59:12.492Z,5.00
2019-03-19T16:01:43.208Z,5.10
2019-03-19T16:04:13.297Z,6.17
2019-03-19T16:06:46.420Z,5.60
2019-03-19T16:09:17.104Z,6.28
2019-03-19T16:11:47.690Z,6.87
2019-03-19T16:14:18.292Z,6.17
2019-03-19T16:16:49.146Z,6.33
2019-03-19T16:19:19.835Z,6.10
2019-03-19T16:21:50.425Z,6.20
2019-03-19T16:24:21.104Z,6.50
2019-03-19T16:26:51.687Z,7.45
2019-03-19T16:29:21.731Z,7.17
2019-03-19T16:31:51.854Z,7.13
2019-03-19T16:34:22.455Z,7.65
2019-03-19T16:36:52.596Z,7.47
2019-03-19T16:39:23.340Z,8.33
2019-03-19T16:41:54.336Z,8.43
2019-03-19T16:44:24.994Z,8.60
2019-03-19T16:46:55.023Z,7.60
2019-03-19T16:49:25.719Z,8.70
2019-03-19T16:51:56.395Z,8.13
2019-03-19T16:54:26.487Z,7.47
2019-03-19T16:56:57.240Z,6.75
2019-03-19T16:59:27.992Z,6.85
2019-03-19T17:02:01.653Z,7.33
2019-03-19T17:04:30.719Z,7.10
2019-03-19T17:07:00.846Z,4.93
2019-03-19T17:09:31.538Z,4.15
2019-03-19T17:12:01.737Z,4.53
2019-03-19T17:14:32.609Z,4.87
2019-03-19T17:17:02.735Z,4.30
2019-03-19T17:19:33.508Z,5.22
2019-03-19T17:22:04.474Z,5.08
2019-03-19T17:24:35.354Z,4.58
2019-03-19T17:27:06.056Z,4.30
2019-03-19T17:29:36.206Z,3.97
2019-03-19T17:32:12.847Z,4.60
2019-03-19T17:34:39.566Z,3.33
2019-03-19T17:37:09.796Z,4.00
2019-03-19T17:39:39.961Z,4.53
2019-03-19T17:42:10.172Z,5.10
2019-03-19T17:44:40.379Z,4.40
2019-03-19T17:47:10.718Z,4.33
2019-03-19T17:49:40.946Z,4.60
2019-03-19T17:52:11.146Z,4.37
2019-03-19T17:54:41.558Z,5.00
2019-03-19T17:57:11.823Z,4.07
2019-03-19T17:59:41.957Z,4.03
2019-03-19T18:02:23.347Z,4.77
2019-03-19T18:04:44.132Z,3.80
2019-03-19T18:07:14.406Z,3.83
2019-03-19T18:09:44.819Z,4.43
2019-03-19T18:12:15.128Z,3.90
2019-03-19T18:14:45.285Z,4.10
2019-03-19T18:17:15.508Z,3.50
2019-03-19T18:19:45.809Z,4.00
2019-03-19T18:22:16.252Z,5.17
2019-03-19T18:24:46.549Z,5.10
2019-03-19T18:27:17.734Z,4.90
2019-03-19T18:29:47.982Z,5.17
2019-03-19T18:32:18.401Z,5.63
2019-03-19T18:34:48.602Z,5.40
2019-03-19T18:37:18.858Z,5.33
2019-03-19T18:39:49.117Z,6.00
2019-03-19T18:42:19.690Z,5.97
2019-03-19T18:44:49.929Z,6.67
2019-03-19T18:47:20.140Z,6.97
2019-03-19T18:49:50.284Z,6.70
2019-03-19T18:52:20.460Z,6.60
2019-03-19T18:54:50.703Z,7.23
2019-03-19T18:57:20.911Z,7.43
2019-03-19T18:59:52.083Z,7.13
2019-03-19T19:02:22.399Z,7.37
2019-03-19T19:04:52.680Z,6.80
2019-03-19T19:07:22.827Z,5.63
2019-03-19T19:09:52.943Z,4.87
2019-03-19T19:12:23.072Z,4.87
2019-03-19T19:14:53.309Z,4.70
2019-03-19T19:17:23.529Z,5.07
2019-03-19T19:19:53.752Z,5.63
2019-03-19T19:22:23.909Z,5.70
2019-03-19T19:24:54.086Z,6.17
2019-03-19T19:27:24.311Z,5.73
2019-03-19T19:29:54.649Z,5.63
2019-03-19T19:32:24.875Z,6.53
2019-03-19T19:34:55.069Z,6.00
2019-03-19T19:37:25.201Z,5.47
2019-03-19T19:39:55.367Z,5.20
2019-03-19T19:42:25.519Z,5.40
2019-03-19T19:44:55.752Z,6.50
2019-03-19T19:47:25.888Z,5.70
2019-03-19T19:49:56.187Z,6.07
2019-03-19T19:52:26.421Z,6.73
2019-03-19T19:54:56.571Z,6.50
2019-03-19T19:57:26.780Z,6.03
2019-03-19T19:59:56.907Z,6.17
2019-03-19T20:02:27.063Z,6.70
2019-03-19T20:05:02.935Z,6.80
2019-03-19T20:07:28.995Z,6.43
2019-03-19T20:09:59.018Z,7.67
2019-03-19T20:12:29.156Z,6.17
2019-03-19T20:14:59.203Z,6.37
2019-03-19T20:17:29.228Z,6.07
2019-03-19T20:19:59.344Z,6.40
2019-03-19T20:22:29.428Z,6.00
2019-03-19T20:24:59.509Z,6.43
2019-03-19T20:27:29.532Z,6.43
2019-03-19T20:29:59.663Z,5.53
2019-03-19T20:32:29.699Z,5.90
2019-03-19T20:34:59.761Z,5.73
2019-03-19T20:37:29.772Z,6.30
2019-03-19T20:40:00.943Z,6.73
2019-03-19T20:42:31.011Z,5.67
2019-03-19T20:45:01.035Z,5.73
2019-03-19T20:47:31.175Z,6.57
2019-03-19T20:50:01.215Z,6.80
2019-03-19T20:52:31.316Z,5.70
2019-03-19T20:55:01.371Z,6.27
2019-03-19T20:57:31.415Z,6.00
2019-03-19T21:00:01.460Z,6.07
2019-03-19T21:02:33.132Z,6.77
2019-03-19T21:05:03.347Z,6.47
2019-03-19T21:07:33.456Z,6.40
2019-03-19T21:10:04.661Z,7.73
2019-03-19T21:12:34.791Z,6.30
2019-03-19T21:15:05.517Z,7.07
2019-03-19T21:17:35.604Z,8.90
2019-03-19T21:20:05.767Z,8.77
2019-03-19T21:22:35.796Z,8.03
2019-03-19T21:25:05.878Z,7.40
2019-03-19T21:27:36.305Z,6.90
2019-03-19T21:30:06.750Z,6.57
2019-03-19T21:32:36.894Z,6.27
2019-03-19T21:35:06.957Z,8.10
2019-03-19T21:37:36.993Z,7.20
2019-03-19T21:40:08.132Z,7.23
2019-03-19T21:42:38.167Z,7.43
2019-03-19T21:45:08.776Z,7.30
2019-03-19T21:47:39.850Z,6.80
2019-03-19T21:50:11.791Z,6.43
2019-03-19T21:52:41.854Z,6.43
2019-03-19T21:55:14.078Z,6.03
2019-03-19T21:57:43.837Z,5.60
2019-03-19T22:00:15.015Z,7.20
2019-03-19T22:02:45.120Z,7.20
2019-03-19T22:05:15.151Z,6.87
2019-03-19T22:07:45.331Z,6.93
2019-03-19T22:10:15.730Z,6.37
2019-03-19T22:12:45.764Z,6.67
2019-03-19T22:15:16.970Z,7.53
2019-03-19T22:17:47.052Z,7.10
2019-03-19T22:20:17.088Z,6.30
2019-03-19T22:22:47.120Z,5.73
2019-03-19T22:25:17.233Z,5.30
2019-03-19T22:27:48.325Z,5.33
2019-03-19T22:30:18.418Z,5.30
2019-03-19T22:32:48.555Z,5.33
2019-03-19T22:35:18.598Z,5.80
2019-03-19T22:37:48.620Z,5.10
2019-03-19T22:40:18.643Z,5.23
2019-03-19T22:42:48.670Z,4.60
2019-03-19T22:45:18.703Z,5.77
2019-03-19T22:47:48.732Z,6.10
2019-03-19T22:50:18.868Z,4.90
2019-03-19T22:52:48.897Z,5.37
2019-03-19T22:55:28.595Z,5.77
2019-03-19T22:57:50.705Z,5.40
2019-03-19T23:00:39.894Z,6.43
2019-03-19T23:03:11.364Z,5.57
2019-03-19T23:05:41.400Z,5.67
2019-03-19T23:08:11.432Z,5.80
2019-03-19T23:10:41.469Z,5.53
2019-03-19T23:13:11.998Z,6.00
2019-03-19T23:15:42.345Z,5.37
2019-03-19T23:18:12.357Z,5.00
2019-03-19T23:20:42.379Z,5.13
2019-03-19T23:23:12.466Z,5.83
2019-03-19T23:25:42.523Z,6.50
2019-03-19T23:28:12.627Z,5.83
2019-03-19T23:30:43.223Z,6.20
2019-03-19T23:33:13.376Z,5.73
2019-03-19T23:35:43.523Z,5.90
2019-03-19T23:38:13.543Z,5.57
2019-03-19T23:40:43.650Z,5.57
2019-03-19T23:43:13.727Z,5.97
2019-03-19T23:45:43.748Z,4.90
2019-03-19T23:48:13.771Z,5.10
2019-03-19T23:50:44.776Z,5.90
2019-03-19T23:53:14.792Z,5.03
2019-03-19T23:55:44.828Z,6.47
2019-03-19T23:58:14.844Z,5.93
